Iota, Louisiana
Current Conditions -  °F | °C
As of 12:15 PM on Wednesday 28 Jan 2015 (Local Time) from K3R7 Reporting Station
Clear Clear  
Wind Chill: 19°   Ceiling: Unl
Heat Index: 19°   Visibility: 10mi
Dew Point:   Wind: 13mph
Humidity: 37%   Direction: 140°SE
Pressure: 30.25"   Gusts: NA
Location:  30.33°N, 92.5°W
Report Text: K3R7 281815Z AUTO 14011KT 10SM CLR 19/05 A3025 RMK AO2 T01940045
Loading
Personal Weather Stations






























Interactive Weather Map New forecast layout! Learn more

10-Day Weather Forecast

Advertisements
Track Severe Weather on mobile